sensor_id;sensor_type;location;lat;lon;timestamp;P1;durP1;ratioP1;P2;durP2;ratioP2
16478;SDS011;8350;52.316;10.530;2023-04-29T00:01:53;21.80;;;18.17;;
16478;SDS011;8350;52.316;10.530;2023-04-29T00:04:23;19.88;;;17.75;;
16478;SDS011;8350;52.316;10.530;2023-04-29T00:06:51;23.33;;;18.48;;
16478;SDS011;8350;52.316;10.530;2023-04-29T00:09:18;19.52;;;17.33;;
16478;SDS011;8350;52.316;10.530;2023-04-29T00:11:46;18.90;;;16.98;;
16478;SDS011;8350;52.316;10.530;2023-04-29T00:14:14;19.70;;;17.48;;
16478;SDS011;8350;52.316;10.530;2023-04-29T00:16:41;19.52;;;17.23;;
16478;SDS011;8350;52.316;10.530;2023-04-29T00:19:08;20.50;;;16.98;;
16478;SDS011;8350;52.316;10.530;2023-04-29T00:21:41;20.40;;;17.80;;
16478;SDS011;8350;52.316;10.530;2023-04-29T00:24:09;17.38;;;15.43;;
16478;SDS011;8350;52.316;10.530;2023-04-29T00:26:36;18.27;;;16.00;;
16478;SDS011;8350;52.316;10.530;2023-04-29T00:29:05;21.00;;;17.08;;
16478;SDS011;8350;52.316;10.530;2023-04-29T00:31:32;19.30;;;16.95;;
16478;SDS011;8350;52.316;10.530;2023-04-29T00:33:59;20.10;;;17.52;;
16478;SDS011;8350;52.316;10.530;2023-04-29T00:36:25;17.65;;;15.75;;
16478;SDS011;8350;52.316;10.530;2023-04-29T00:38:53;18.88;;;16.75;;
16478;SDS011;8350;52.316;10.530;2023-04-29T00:41:21;21.88;;;17.95;;
16478;SDS011;8350;52.316;10.530;2023-04-29T00:43:49;19.42;;;17.25;;
16478;SDS011;8350;52.316;10.530;2023-04-29T00:46:18;18.95;;;16.83;;
16478;SDS011;8350;52.316;10.530;2023-04-29T00:48:46;19.48;;;17.38;;
16478;SDS011;8350;52.316;10.530;2023-04-29T00:51:14;21.52;;;17.67;;
16478;SDS011;8350;52.316;10.530;2023-04-29T00:53:43;21.30;;;18.90;;
16478;SDS011;8350;52.316;10.530;2023-04-29T00:56:10;20.35;;;18.25;;
16478;SDS011;8350;52.316;10.530;2023-04-29T00:58:40;22.67;;;19.73;;
16478;SDS011;8350;52.316;10.530;2023-04-29T01:01:13;22.63;;;20.23;;
16478;SDS011;8350;52.316;10.530;2023-04-29T01:03:41;24.65;;;22.05;;
16478;SDS011;8350;52.316;10.530;2023-04-29T01:06:10;27.27;;;23.20;;
16478;SDS011;8350;52.316;10.530;2023-04-29T01:08:56;25.88;;;22.20;;
16478;SDS011;8350;52.316;10.530;2023-04-29T01:14:12;24.13;;;21.52;;
16478;SDS011;8350;52.316;10.530;2023-04-29T01:16:41;27.35;;;22.88;;
16478;SDS011;8350;52.316;10.530;2023-04-29T01:19:15;24.30;;;21.25;;
16478;SDS011;8350;52.316;10.530;2023-04-29T01:21:53;24.58;;;21.98;;
16478;SDS011;8350;52.316;10.530;2023-04-29T01:24:24;25.77;;;22.27;;
16478;SDS011;8350;52.316;10.530;2023-04-29T01:26:53;25.17;;;22.08;;
16478;SDS011;8350;52.316;10.530;2023-04-29T01:29:26;25.08;;;21.58;;
16478;SDS011;8350;52.316;10.530;2023-04-29T01:32:02;27.02;;;22.95;;
16478;SDS011;8350;52.316;10.530;2023-04-29T01:34:33;27.58;;;23.52;;
16478;SDS011;8350;52.316;10.530;2023-04-29T01:37:06;29.05;;;24.88;;
16478;SDS011;8350;52.316;10.530;2023-04-29T01:39:44;28.30;;;24.35;;
16478;SDS011;8350;52.316;10.530;2023-04-29T01:42:23;31.48;;;26.15;;
16478;SDS011;8350;52.316;10.530;2023-04-29T01:44:55;31.50;;;25.08;;
16478;SDS011;8350;52.316;10.530;2023-04-29T01:47:26;30.10;;;25.20;;
16478;SDS011;8350;52.316;10.530;2023-04-29T01:49:54;34.47;;;27.55;;
16478;SDS011;8350;52.316;10.530;2023-04-29T01:52:21;37.95;;;27.52;;
16478;SDS011;8350;52.316;10.530;2023-04-29T01:54:50;39.88;;;30.70;;
16478;SDS011;8350;52.316;10.530;2023-04-29T01:57:16;42.90;;;31.60;;
16478;SDS011;8350;52.316;10.530;2023-04-29T01:59:46;47.08;;;33.75;;
16478;SDS011;8350;52.316;10.530;2023-04-29T02:02:13;46.63;;;32.70;;
16478;SDS011;8350;52.316;10.530;2023-04-29T02:04:45;46.40;;;35.10;;
16478;SDS011;8350;52.316;10.530;2023-04-29T02:07:14;50.30;;;34.17;;
16478;SDS011;8350;52.316;10.530;2023-04-29T02:09:41;49.10;;;34.88;;
16478;SDS011;8350;52.316;10.530;2023-04-29T02:12:10;48.58;;;35.22;;
16478;SDS011;8350;52.316;10.530;2023-04-29T02:14:39;55.58;;;35.42;;
16478;SDS011;8350;52.316;10.530;2023-04-29T02:17:08;47.80;;;35.00;;
16478;SDS011;8350;52.316;10.530;2023-04-29T02:19:35;47.15;;;32.95;;
16478;SDS011;8350;52.316;10.530;2023-04-29T02:22:02;47.72;;;31.33;;
16478;SDS011;8350;52.316;10.530;2023-04-29T02:24:29;41.08;;;30.95;;
16478;SDS011;8350;52.316;10.530;2023-04-29T02:26:56;45.75;;;30.25;;
16478;SDS011;8350;52.316;10.530;2023-04-29T02:29:25;44.20;;;31.02;;
16478;SDS011;8350;52.316;10.530;2023-04-29T02:31:53;44.50;;;30.27;;
16478;SDS011;8350;52.316;10.530;2023-04-29T02:34:20;44.53;;;30.63;;
16478;SDS011;8350;52.316;10.530;2023-04-29T02:36:48;44.72;;;29.65;;
16478;SDS011;8350;52.316;10.530;2023-04-29T02:39:15;45.63;;;30.75;;
16478;SDS011;8350;52.316;10.530;2023-04-29T02:41:44;42.35;;;30.38;;
16478;SDS011;8350;52.316;10.530;2023-04-29T02:44:11;41.63;;;29.85;;
16478;SDS011;8350;52.316;10.530;2023-04-29T02:46:40;45.45;;;29.45;;
16478;SDS011;8350;52.316;10.530;2023-04-29T02:49:10;39.13;;;28.88;;
16478;SDS011;8350;52.316;10.530;2023-04-29T02:51:37;39.80;;;28.98;;
16478;SDS011;8350;52.316;10.530;2023-04-29T02:54:05;40.55;;;28.20;;
16478;SDS011;8350;52.316;10.530;2023-04-29T02:56:32;42.30;;;28.90;;
16478;SDS011;8350;52.316;10.530;2023-04-29T02:58:59;40.53;;;27.90;;
16478;SDS011;8350;52.316;10.530;2023-04-29T03:01:26;39.53;;;27.30;;
16478;SDS011;8350;52.316;10.530;2023-04-29T03:03:54;39.65;;;27.25;;
16478;SDS011;8350;52.316;10.530;2023-04-29T03:06:22;37.47;;;27.50;;
16478;SDS011;8350;52.316;10.530;2023-04-29T03:08:50;40.95;;;27.83;;
16478;SDS011;8350;52.316;10.530;2023-04-29T03:11:17;39.42;;;28.00;;
16478;SDS011;8350;52.316;10.530;2023-04-29T03:13:44;39.88;;;28.25;;
16478;SDS011;8350;52.316;10.530;2023-04-29T03:16:12;43.78;;;28.90;;
16478;SDS011;8350;52.316;10.530;2023-04-29T03:18:40;40.75;;;29.25;;
16478;SDS011;8350;52.316;10.530;2023-04-29T03:21:09;38.95;;;27.63;;
16478;SDS011;8350;52.316;10.530;2023-04-29T03:23:36;42.88;;;31.55;;
16478;SDS011;8350;52.316;10.530;2023-04-29T03:26:04;43.60;;;31.42;;
16478;SDS011;8350;52.316;10.530;2023-04-29T03:28:31;37.90;;;30.83;;
16478;SDS011;8350;52.316;10.530;2023-04-29T03:30:58;39.25;;;30.08;;
16478;SDS011;8350;52.316;10.530;2023-04-29T03:33:25;41.22;;;31.83;;
16478;SDS011;8350;52.316;10.530;2023-04-29T03:35:52;37.78;;;29.05;;
16478;SDS011;8350;52.316;10.530;2023-04-29T03:38:21;39.03;;;30.92;;
16478;SDS011;8350;52.316;10.530;2023-04-29T03:40:49;39.22;;;28.98;;
16478;SDS011;8350;52.316;10.530;2023-04-29T03:43:17;38.13;;;29.77;;
16478;SDS011;8350;52.316;10.530;2023-04-29T03:45:44;39.83;;;28.92;;
16478;SDS011;8350;52.316;10.530;2023-04-29T03:48:11;38.17;;;29.00;;
16478;SDS011;8350;52.316;10.530;2023-04-29T03:50:38;32.58;;;26.60;;
16478;SDS011;8350;52.316;10.530;2023-04-29T03:53:06;34.33;;;26.95;;
16478;SDS011;8350;52.316;10.530;2023-04-29T03:55:34;36.35;;;26.63;;
16478;SDS011;8350;52.316;10.530;2023-04-29T03:58:02;33.03;;;27.00;;
16478;SDS011;8350;52.316;10.530;2023-04-29T04:00:28;32.78;;;26.33;;
16478;SDS011;8350;52.316;10.530;2023-04-29T04:02:56;32.80;;;27.77;;
16478;SDS011;8350;52.316;10.530;2023-04-29T04:05:24;28.42;;;25.35;;
16478;SDS011;8350;52.316;10.530;2023-04-29T04:07:51;30.70;;;26.00;;
16478;SDS011;8350;52.316;10.530;2023-04-29T04:10:18;29.95;;;26.10;;
16478;SDS011;8350;52.316;10.530;2023-04-29T04:12:46;25.85;;;23.10;;
16478;SDS011;8350;52.316;10.530;2023-04-29T04:15:13;27.20;;;23.02;;
16478;SDS011;8350;52.316;10.530;2023-04-29T04:17:41;28.65;;;23.60;;
16478;SDS011;8350;52.316;10.530;2023-04-29T04:20:11;31.20;;;25.23;;
16478;SDS011;8350;52.316;10.530;2023-04-29T04:22:38;27.98;;;24.17;;
16478;SDS011;8350;52.316;10.530;2023-04-29T04:25:05;34.75;;;27.25;;
16478;SDS011;8350;52.316;10.530;2023-04-29T04:27:33;30.23;;;25.92;;
16478;SDS011;8350;52.316;10.530;2023-04-29T04:30:02;29.40;;;24.90;;
16478;SDS011;8350;52.316;10.530;2023-04-29T04:32:29;27.60;;;22.67;;
16478;SDS011;8350;52.316;10.530;2023-04-29T04:34:56;27.17;;;21.85;;
16478;SDS011;8350;52.316;10.530;2023-04-29T04:37:25;24.27;;;20.17;;
16478;SDS011;8350;52.316;10.530;2023-04-29T04:39:52;23.85;;;20.70;;
16478;SDS011;8350;52.316;10.530;2023-04-29T04:42:19;23.85;;;20.23;;
16478;SDS011;8350;52.316;10.530;2023-04-29T04:44:47;26.75;;;21.65;;
16478;SDS011;8350;52.316;10.530;2023-04-29T04:47:16;28.30;;;23.48;;
16478;SDS011;8350;52.316;10.530;2023-04-29T04:49:43;30.35;;;24.73;;
16478;SDS011;8350;52.316;10.530;2023-04-29T04:52:13;27.50;;;23.85;;
16478;SDS011;8350;52.316;10.530;2023-04-29T04:54:40;32.10;;;24.85;;
16478;SDS011;8350;52.316;10.530;2023-04-29T04:57:11;33.72;;;25.90;;
16478;SDS011;8350;52.316;10.530;2023-04-29T04:59:38;37.08;;;27.55;;
16478;SDS011;8350;52.316;10.530;2023-04-29T05:02:05;33.30;;;27.13;;
16478;SDS011;8350;52.316;10.530;2023-04-29T05:04:34;37.30;;;27.52;;
16478;SDS011;8350;52.316;10.530;2023-04-29T05:07:01;34.80;;;26.85;;
16478;SDS011;8350;52.316;10.530;2023-04-29T05:09:28;37.88;;;29.10;;
16478;SDS011;8350;52.316;10.530;2023-04-29T05:11:56;40.78;;;28.45;;
16478;SDS011;8350;52.316;10.530;2023-04-29T05:14:23;37.85;;;29.58;;
16478;SDS011;8350;52.316;10.530;2023-04-29T05:16:51;40.05;;;29.98;;
16478;SDS011;8350;52.316;10.530;2023-04-29T05:19:18;40.47;;;29.83;;
16478;SDS011;8350;52.316;10.530;2023-04-29T05:21:46;39.10;;;30.23;;
16478;SDS011;8350;52.316;10.530;2023-04-29T05:24:33;39.60;;;28.55;;
16478;SDS011;8350;52.316;10.530;2023-04-29T05:27:00;35.72;;;28.90;;
16478;SDS011;8350;52.316;10.530;2023-04-29T05:29:28;37.28;;;28.30;;
16478;SDS011;8350;52.316;10.530;2023-04-29T05:31:55;33.72;;;28.27;;
16478;SDS011;8350;52.316;10.530;2023-04-29T05:34:23;37.38;;;29.63;;
16478;SDS011;8350;52.316;10.530;2023-04-29T05:36:51;34.47;;;26.25;;
16478;SDS011;8350;52.316;10.530;2023-04-29T05:39:19;32.35;;;26.33;;
16478;SDS011;8350;52.316;10.530;2023-04-29T05:41:46;30.23;;;26.38;;
16478;SDS011;8350;52.316;10.530;2023-04-29T05:44:13;30.67;;;23.75;;
16478;SDS011;8350;52.316;10.530;2023-04-29T05:46:40;28.17;;;23.70;;
16478;SDS011;8350;52.316;10.530;2023-04-29T05:49:07;32.03;;;26.73;;
16478;SDS011;8350;52.316;10.530;2023-04-29T05:51:34;31.77;;;26.48;;
16478;SDS011;8350;52.316;10.530;2023-04-29T05:54:03;34.42;;;27.75;;
16478;SDS011;8350;52.316;10.530;2023-04-29T05:56:30;33.95;;;27.15;;
16478;SDS011;8350;52.316;10.530;2023-04-29T05:58:57;34.10;;;28.23;;
16478;SDS011;8350;52.316;10.530;2023-04-29T06:01:24;32.30;;;26.80;;
16478;SDS011;8350;52.316;10.530;2023-04-29T06:03:51;32.33;;;27.08;;
16478;SDS011;8350;52.316;10.530;2023-04-29T06:06:17;35.72;;;28.23;;
16478;SDS011;8350;52.316;10.530;2023-04-29T06:08:44;28.88;;;25.08;;
16478;SDS011;8350;52.316;10.530;2023-04-29T06:11:13;30.80;;;23.30;;
16478;SDS011;8350;52.316;10.530;2023-04-29T06:13:40;29.27;;;22.85;;
16478;SDS011;8350;52.316;10.530;2023-04-29T06:16:07;24.92;;;21.80;;
16478;SDS011;8350;52.316;10.530;2023-04-29T06:18:34;21.85;;;19.20;;
16478;SDS011;8350;52.316;10.530;2023-04-29T06:21:02;22.42;;;19.40;;
16478;SDS011;8350;52.316;10.530;2023-04-29T06:23:29;20.45;;;17.75;;
16478;SDS011;8350;52.316;10.530;2023-04-29T06:26:00;20.15;;;17.40;;
16478;SDS011;8350;52.316;10.530;2023-04-29T06:28:28;17.70;;;15.32;;
16478;SDS011;8350;52.316;10.530;2023-04-29T06:30:55;16.58;;;14.85;;
16478;SDS011;8350;52.316;10.530;2023-04-29T06:33:22;17.67;;;15.45;;
16478;SDS011;8350;52.316;10.530;2023-04-29T06:35:49;15.65;;;13.95;;
16478;SDS011;8350;52.316;10.530;2023-04-29T06:38:16;15.30;;;13.70;;
16478;SDS011;8350;52.316;10.530;2023-04-29T06:40:43;16.52;;;14.32;;
16478;SDS011;8350;52.316;10.530;2023-04-29T06:43:09;17.25;;;15.57;;
16478;SDS011;8350;52.316;10.530;2023-04-29T06:45:38;16.15;;;14.55;;
16478;SDS011;8350;52.316;10.530;2023-04-29T06:48:05;16.42;;;14.73;;
16478;SDS011;8350;52.316;10.530;2023-04-29T06:50:32;16.10;;;14.10;;
16478;SDS011;8350;52.316;10.530;2023-04-29T06:53:00;17.23;;;15.15;;
16478;SDS011;8350;52.316;10.530;2023-04-29T06:55:27;16.65;;;14.95;;
16478;SDS011;8350;52.316;10.530;2023-04-29T06:57:54;16.80;;;15.13;;
16478;SDS011;8350;52.316;10.530;2023-04-29T07:00:21;19.20;;;15.27;;
16478;SDS011;8350;52.316;10.530;2023-04-29T07:02:50;17.48;;;15.68;;
16478;SDS011;8350;52.316;10.530;2023-04-29T07:05:16;18.67;;;16.30;;
16478;SDS011;8350;52.316;10.530;2023-04-29T07:07:44;16.52;;;14.82;;
16478;SDS011;8350;52.316;10.530;2023-04-29T07:10:11;17.92;;;16.20;;
16478;SDS011;8350;52.316;10.530;2023-04-29T07:12:40;18.95;;;17.05;;
16478;SDS011;8350;52.316;10.530;2023-04-29T07:15:07;19.38;;;17.38;;
16478;SDS011;8350;52.316;10.530;2023-04-29T07:17:35;19.67;;;17.77;;
16478;SDS011;8350;52.316;10.530;2023-04-29T07:20:04;20.48;;;17.75;;
16478;SDS011;8350;52.316;10.530;2023-04-29T07:22:31;19.83;;;17.80;;
16478;SDS011;8350;52.316;10.530;2023-04-29T07:24:58;20.63;;;18.42;;
16478;SDS011;8350;52.316;10.530;2023-04-29T07:27:25;19.92;;;17.83;;
16478;SDS011;8350;52.316;10.530;2023-04-29T07:29:53;20.38;;;18.17;;
16478;SDS011;8350;52.316;10.530;2023-04-29T07:32:20;20.10;;;18.10;;
16478;SDS011;8350;52.316;10.530;2023-04-29T07:34:47;18.65;;;16.65;;
16478;SDS011;8350;52.316;10.530;2023-04-29T07:37:22;18.42;;;16.52;;
16478;SDS011;8350;52.316;10.530;2023-04-29T07:39:49;18.30;;;16.55;;
16478;SDS011;8350;52.316;10.530;2023-04-29T07:42:16;18.60;;;16.80;;
16478;SDS011;8350;52.316;10.530;2023-04-29T07:44:43;19.70;;;17.65;;
16478;SDS011;8350;52.316;10.530;2023-04-29T07:47:10;19.27;;;17.38;;
16478;SDS011;8350;52.316;10.530;2023-04-29T07:49:37;19.50;;;17.52;;
16478;SDS011;8350;52.316;10.530;2023-04-29T07:52:04;17.60;;;15.85;;
16478;SDS011;8350;52.316;10.530;2023-04-29T07:57:01;18.67;;;16.98;;
16478;SDS011;8350;52.316;10.530;2023-04-29T07:59:28;17.13;;;15.50;;
16478;SDS011;8350;52.316;10.530;2023-04-29T08:01:56;17.20;;;15.57;;
16478;SDS011;8350;52.316;10.530;2023-04-29T08:04:23;17.38;;;15.77;;
16478;SDS011;8350;52.316;10.530;2023-04-29T08:06:50;18.35;;;16.65;;
16478;SDS011;8350;52.316;10.530;2023-04-29T08:09:17;18.08;;;16.38;;
16478;SDS011;8350;52.316;10.530;2023-04-29T08:11:46;17.85;;;16.15;;
16478;SDS011;8350;52.316;10.530;2023-04-29T08:14:13;16.08;;;14.60;;
16478;SDS011;8350;52.316;10.530;2023-04-29T08:16:40;16.02;;;14.52;;
16478;SDS011;8350;52.316;10.530;2023-04-29T08:19:06;17.80;;;16.17;;
16478;SDS011;8350;52.316;10.530;2023-04-29T08:21:33;17.02;;;15.27;;
16478;SDS011;8350;52.316;10.530;2023-04-29T08:24:03;16.45;;;14.77;;
16478;SDS011;8350;52.316;10.530;2023-04-29T08:26:30;17.35;;;15.57;;
16478;SDS011;8350;52.316;10.530;2023-04-29T08:28:58;15.35;;;13.93;;
16478;SDS011;8350;52.316;10.530;2023-04-29T08:31:25;17.75;;;15.38;;
16478;SDS011;8350;52.316;10.530;2023-04-29T08:33:52;16.02;;;14.43;;
16478;SDS011;8350;52.316;10.530;2023-04-29T08:36:20;15.55;;;14.20;;
16478;SDS011;8350;52.316;10.530;2023-04-29T08:38:46;14.15;;;12.85;;
16478;SDS011;8350;52.316;10.530;2023-04-29T08:41:16;15.93;;;12.75;;
16478;SDS011;8350;52.316;10.530;2023-04-29T08:43:43;14.48;;;13.27;;
16478;SDS011;8350;52.316;10.530;2023-04-29T08:46:12;14.40;;;12.93;;
16478;SDS011;8350;52.316;10.530;2023-04-29T08:48:40;13.82;;;12.48;;
16478;SDS011;8350;52.316;10.530;2023-04-29T08:51:07;14.57;;;13.18;;
16478;SDS011;8350;52.316;10.530;2023-04-29T08:53:37;13.23;;;12.02;;
16478;SDS011;8350;52.316;10.530;2023-04-29T08:56:07;12.75;;;11.27;;
16478;SDS011;8350;52.316;10.530;2023-04-29T08:58:38;12.80;;;10.13;;
16478;SDS011;8350;52.316;10.530;2023-04-29T09:01:07;11.45;;;10.45;;
16478;SDS011;8350;52.316;10.530;2023-04-29T09:03:39;11.07;;;10.05;;
16478;SDS011;8350;52.316;10.530;2023-04-29T09:06:12;11.38;;;10.38;;
16478;SDS011;8350;52.316;10.530;2023-04-29T09:08:39;10.65;;;9.68;;
16478;SDS011;8350;52.316;10.530;2023-04-29T09:11:07;11.27;;;10.18;;
16478;SDS011;8350;52.316;10.530;2023-04-29T09:13:35;9.77;;;8.98;;
16478;SDS011;8350;52.316;10.530;2023-04-29T09:16:03;9.75;;;8.88;;
16478;SDS011;8350;52.316;10.530;2023-04-29T09:18:43;9.77;;;8.43;;
16478;SDS011;8350;52.316;10.530;2023-04-29T09:21:15;10.68;;;9.70;;
16478;SDS011;8350;52.316;10.530;2023-04-29T09:23:43;10.25;;;9.38;;
16478;SDS011;8350;52.316;10.530;2023-04-29T09:26:10;10.10;;;9.18;;
16478;SDS011;8350;52.316;10.530;2023-04-29T09:28:37;10.55;;;9.55;;
16478;SDS011;8350;52.316;10.530;2023-04-29T09:31:07;10.10;;;9.20;;
16478;SDS011;8350;52.316;10.530;2023-04-29T09:33:52;10.07;;;9.18;;
16478;SDS011;8350;52.316;10.530;2023-04-29T09:36:34;10.27;;;8.32;;
16478;SDS011;8350;52.316;10.530;2023-04-29T09:39:02;8.98;;;8.18;;
16478;SDS011;8350;52.316;10.530;2023-04-29T09:41:30;9.75;;;8.38;;
16478;SDS011;8350;52.316;10.530;2023-04-29T09:44:01;9.50;;;8.60;;
16478;SDS011;8350;52.316;10.530;2023-04-29T09:46:30;8.45;;;7.38;;
16478;SDS011;8350;52.316;10.530;2023-04-29T09:49:00;8.57;;;7.88;;
16478;SDS011;8350;52.316;10.530;2023-04-29T09:51:28;8.93;;;7.43;;
16478;SDS011;8350;52.316;10.530;2023-04-29T09:53:58;8.57;;;7.75;;
16478;SDS011;8350;52.316;10.530;2023-04-29T09:56:27;9.18;;;8.13;;
16478;SDS011;8350;52.316;10.530;2023-04-29T09:58:55;8.15;;;7.28;;
16478;SDS011;8350;52.316;10.530;2023-04-29T10:01:33;7.63;;;6.90;;
16478;SDS011;8350;52.316;10.530;2023-04-29T10:04:04;7.28;;;6.57;;
16478;SDS011;8350;52.316;10.530;2023-04-29T10:06:33;8.00;;;7.07;;
16478;SDS011;8350;52.316;10.530;2023-04-29T10:09:05;7.88;;;7.10;;
16478;SDS011;8350;52.316;10.530;2023-04-29T10:11:33;7.57;;;6.85;;
16478;SDS011;8350;52.316;10.530;2023-04-29T10:14:01;7.40;;;6.65;;
16478;SDS011;8350;52.316;10.530;2023-04-29T10:16:30;6.95;;;6.25;;
16478;SDS011;8350;52.316;10.530;2023-04-29T10:19:02;7.05;;;5.53;;
16478;SDS011;8350;52.316;10.530;2023-04-29T10:21:33;7.13;;;6.43;;
16478;SDS011;8350;52.316;10.530;2023-04-29T10:24:02;6.70;;;5.85;;
16478;SDS011;8350;52.316;10.530;2023-04-29T10:26:31;5.75;;;5.15;;
16478;SDS011;8350;52.316;10.530;2023-04-29T10:29:04;8.00;;;6.03;;
16478;SDS011;8350;52.316;10.530;2023-04-29T10:31:32;8.05;;;6.40;;
16478;SDS011;8350;52.316;10.530;2023-04-29T10:34:01;7.18;;;6.45;;
16478;SDS011;8350;52.316;10.530;2023-04-29T10:36:30;6.72;;;6.13;;
16478;SDS011;8350;52.316;10.530;2023-04-29T10:39:02;7.75;;;6.20;;
16478;SDS011;8350;52.316;10.530;2023-04-29T10:41:32;5.88;;;5.32;;
16478;SDS011;8350;52.316;10.530;2023-04-29T10:44:11;7.63;;;6.80;;
16478;SDS011;8350;52.316;10.530;2023-04-29T10:46:38;7.05;;;6.35;;
16478;SDS011;8350;52.316;10.530;2023-04-29T10:49:05;7.63;;;6.90;;
16478;SDS011;8350;52.316;10.530;2023-04-29T10:51:40;7.97;;;7.28;;
16478;SDS011;8350;52.316;10.530;2023-04-29T10:54:09;7.20;;;6.60;;
16478;SDS011;8350;52.316;10.530;2023-04-29T10:56:42;8.00;;;7.30;;
16478;SDS011;8350;52.316;10.530;2023-04-29T10:59:13;7.97;;;7.18;;
16478;SDS011;8350;52.316;10.530;2023-04-29T11:01:44;10.30;;;7.05;;
16478;SDS011;8350;52.316;10.530;2023-04-29T11:04:13;7.35;;;6.75;;
16478;SDS011;8350;52.316;10.530;2023-04-29T11:06:43;8.00;;;7.20;;
16478;SDS011;8350;52.316;10.530;2023-04-29T11:09:12;7.47;;;6.78;;
16478;SDS011;8350;52.316;10.530;2023-04-29T11:11:44;8.75;;;7.32;;
16478;SDS011;8350;52.316;10.530;2023-04-29T11:14:23;8.13;;;7.00;;
16478;SDS011;8350;52.316;10.530;2023-04-29T11:16:52;9.95;;;7.53;;
16478;SDS011;8350;52.316;10.530;2023-04-29T11:19:20;7.00;;;6.40;;
16478;SDS011;8350;52.316;10.530;2023-04-29T11:22:02;6.60;;;6.00;;
16478;SDS011;8350;52.316;10.530;2023-04-29T11:24:34;8.13;;;6.20;;
16478;SDS011;8350;52.316;10.530;2023-04-29T11:27:01;9.07;;;7.10;;
16478;SDS011;8350;52.316;10.530;2023-04-29T11:29:30;6.55;;;5.93;;
16478;SDS011;8350;52.316;10.530;2023-04-29T11:31:58;7.30;;;6.60;;
16478;SDS011;8350;52.316;10.530;2023-04-29T11:34:25;6.25;;;5.60;;
16478;SDS011;8350;52.316;10.530;2023-04-29T11:36:56;6.30;;;5.68;;
16478;SDS011;8350;52.316;10.530;2023-04-29T11:39:26;7.47;;;5.68;;
16478;SDS011;8350;52.316;10.530;2023-04-29T11:42:01;7.10;;;6.10;;
16478;SDS011;8350;52.316;10.530;2023-04-29T11:44:28;6.63;;;5.97;;
16478;SDS011;8350;52.316;10.530;2023-04-29T11:47:00;7.18;;;6.20;;
16478;SDS011;8350;52.316;10.530;2023-04-29T11:49:28;5.78;;;5.28;;
16478;SDS011;8350;52.316;10.530;2023-04-29T11:52:00;7.70;;;6.00;;
16478;SDS011;8350;52.316;10.530;2023-04-29T11:54:27;5.70;;;5.10;;
16478;SDS011;8350;52.316;10.530;2023-04-29T11:56:57;6.93;;;5.10;;
16478;SDS011;8350;52.316;10.530;2023-04-29T11:59:24;6.18;;;5.45;;
16478;SDS011;8350;52.316;10.530;2023-04-29T12:01:52;6.32;;;5.30;;
16478;SDS011;8350;52.316;10.530;2023-04-29T12:04:19;6.00;;;5.18;;
16478;SDS011;8350;52.316;10.530;2023-04-29T12:06:46;7.93;;;6.22;;
16478;SDS011;8350;52.316;10.530;2023-04-29T12:09:22;8.00;;;6.45;;
16478;SDS011;8350;52.316;10.530;2023-04-29T12:11:49;7.15;;;6.35;;
16478;SDS011;8350;52.316;10.530;2023-04-29T12:14:16;6.68;;;5.95;;
16478;SDS011;8350;52.316;10.530;2023-04-29T12:16:44;6.72;;;6.00;;
16478;SDS011;8350;52.316;10.530;2023-04-29T12:19:12;8.82;;;6.45;;
16478;SDS011;8350;52.316;10.530;2023-04-29T12:21:47;8.65;;;6.20;;
16478;SDS011;8350;52.316;10.530;2023-04-29T12:24:16;7.38;;;6.60;;
16478;SDS011;8350;52.316;10.530;2023-04-29T12:26:45;6.70;;;6.05;;
16478;SDS011;8350;52.316;10.530;2023-04-29T12:29:12;6.55;;;5.40;;
16478;SDS011;8350;52.316;10.530;2023-04-29T12:31:39;6.70;;;6.05;;
16478;SDS011;8350;52.316;10.530;2023-04-29T12:34:09;6.82;;;6.10;;
16478;SDS011;8350;52.316;10.530;2023-04-29T12:36:36;6.78;;;6.13;;
16478;SDS011;8350;52.316;10.530;2023-04-29T12:39:06;6.68;;;5.97;;
16478;SDS011;8350;52.316;10.530;2023-04-29T12:41:41;6.00;;;5.50;;
16478;SDS011;8350;52.316;10.530;2023-04-29T12:44:09;7.55;;;5.70;;
16478;SDS011;8350;52.316;10.530;2023-04-29T12:46:37;6.97;;;6.22;;
16478;SDS011;8350;52.316;10.530;2023-04-29T12:49:08;6.55;;;5.95;;
16478;SDS011;8350;52.316;10.530;2023-04-29T12:51:36;7.05;;;6.40;;
16478;SDS011;8350;52.316;10.530;2023-04-29T12:54:03;7.22;;;5.43;;
16478;SDS011;8350;52.316;10.530;2023-04-29T12:56:31;6.47;;;5.63;;
16478;SDS011;8350;52.316;10.530;2023-04-29T12:59:03;7.03;;;6.32;;
16478;SDS011;8350;52.316;10.530;2023-04-29T13:01:33;6.97;;;6.00;;
16478;SDS011;8350;52.316;10.530;2023-04-29T13:04:00;6.05;;;5.47;;
16478;SDS011;8350;52.316;10.530;2023-04-29T13:06:27;6.38;;;5.75;;
16478;SDS011;8350;52.316;10.530;2023-04-29T13:08:54;6.38;;;5.72;;
16478;SDS011;8350;52.316;10.530;2023-04-29T13:11:20;8.18;;;6.25;;
16478;SDS011;8350;52.316;10.530;2023-04-29T13:13:47;6.68;;;5.03;;
16478;SDS011;8350;52.316;10.530;2023-04-29T13:16:14;6.70;;;5.25;;
16478;SDS011;8350;52.316;10.530;2023-04-29T13:18:43;6.45;;;5.22;;
16478;SDS011;8350;52.316;10.530;2023-04-29T13:21:10;6.40;;;5.80;;
16478;SDS011;8350;52.316;10.530;2023-04-29T13:23:37;6.38;;;5.47;;
16478;SDS011;8350;52.316;10.530;2023-04-29T13:26:04;6.82;;;6.13;;
16478;SDS011;8350;52.316;10.530;2023-04-29T13:28:32;7.13;;;5.45;;
16478;SDS011;8350;52.316;10.530;2023-04-29T13:30:59;6.70;;;6.10;;
16478;SDS011;8350;52.316;10.530;2023-04-29T13:33:26;7.15;;;6.45;;
16478;SDS011;8350;52.316;10.530;2023-04-29T13:35:55;6.07;;;5.47;;
16478;SDS011;8350;52.316;10.530;2023-04-29T13:38:22;6.03;;;5.53;;
16478;SDS011;8350;52.316;10.530;2023-04-29T13:40:51;5.65;;;5.15;;
16478;SDS011;8350;52.316;10.530;2023-04-29T13:43:18;8.15;;;5.25;;
16478;SDS011;8350;52.316;10.530;2023-04-29T13:45:45;5.40;;;4.90;;
16478;SDS011;8350;52.316;10.530;2023-04-29T13:48:12;5.60;;;4.75;;
16478;SDS011;8350;52.316;10.530;2023-04-29T13:50:43;6.43;;;5.20;;
16478;SDS011;8350;52.316;10.530;2023-04-29T13:53:11;6.53;;;4.28;;
16478;SDS011;8350;52.316;10.530;2023-04-29T13:55:38;6.57;;;5.18;;
16478;SDS011;8350;52.316;10.530;2023-04-29T13:58:05;5.93;;;4.65;;
16478;SDS011;8350;52.316;10.530;2023-04-29T14:00:32;5.07;;;4.57;;
16478;SDS011;8350;52.316;10.530;2023-04-29T14:03:00;6.32;;;4.90;;
16478;SDS011;8350;52.316;10.530;2023-04-29T14:05:27;5.32;;;4.60;;
16478;SDS011;8350;52.316;10.530;2023-04-29T14:07:54;5.10;;;4.60;;
16478;SDS011;8350;52.316;10.530;2023-04-29T14:10:23;5.13;;;4.63;;
16478;SDS011;8350;52.316;10.530;2023-04-29T14:12:50;6.55;;;5.32;;
16478;SDS011;8350;52.316;10.530;2023-04-29T14:15:17;5.22;;;4.72;;
16478;SDS011;8350;52.316;10.530;2023-04-29T14:17:44;6.65;;;4.57;;
16478;SDS011;8350;52.316;10.530;2023-04-29T14:20:11;5.35;;;4.88;;
16478;SDS011;8350;52.316;10.530;2023-04-29T14:22:38;5.57;;;4.95;;
16478;SDS011;8350;52.316;10.530;2023-04-29T14:25:06;5.35;;;4.93;;
16478;SDS011;8350;52.316;10.530;2023-04-29T14:27:35;4.78;;;4.03;;
16478;SDS011;8350;52.316;10.530;2023-04-29T14:30:02;6.15;;;4.55;;
16478;SDS011;8350;52.316;10.530;2023-04-29T14:32:29;4.65;;;4.25;;
16478;SDS011;8350;52.316;10.530;2023-04-29T14:34:56;5.32;;;4.82;;
16478;SDS011;8350;52.316;10.530;2023-04-29T14:37:23;5.07;;;4.25;;
16478;SDS011;8350;52.316;10.530;2023-04-29T14:39:53;4.97;;;3.95;;
16478;SDS011;8350;52.316;10.530;2023-04-29T14:42:22;5.38;;;4.97;;
16478;SDS011;8350;52.316;10.530;2023-04-29T14:44:51;4.93;;;4.43;;